ENEV/EVE METAR and TAF weather

Enter ICAO airport designator
Station Type Date Time Source
ENEV METAR 2020/09/20 06:20 UTC NOAA

ENEV 200620Z AUTO 21012G22KT 160V240 9999 SCT021/// OVC034/// 09/06 Q0998 RMK WIND 1400FT 24026G37KT


Station Type Date Time Source
ENEV Decoded METAR 2020/09/20 06:20 UTC NOAA

Evenes, Norway (ENEV) 68-31N 016-41E 26M
Sep 20, 2020 - 02:20 AM EDT / 2020.09.20 0620 UTC
Wind: from the SSW (210 degrees) at 14 MPH (12 KT) gusting to 25 MPH (22 KT) (direction variable):0
Visibility: greater than 7 mile(s):0
Sky conditions: overcast
Temperature: 48 F (9 C)
Dew Point: 42 F (6 C)
Relative Humidity: 81%
Pressure (altimeter): 29.47 in. Hg (0998 hPa)
ob: ENEV 200620Z AUTO 21012G22KT 160V240 9999 SCT021/// OVC034/// 09/06 Q0998 RMK WIND 1400FT 24026G37KT
cycle: 6

Station Type Date Time Source
ENEV TAF 2010/02/05 07:50 UTC NOAA

METAR ENEV 050750Z 14007KT 9999 FEW040 SCT055 M04/M09 Q1019

Example: see airport list